Callander, United Kingdom
Current Conditions -  °F | °C
As of 12:20 PM on Friday 21 Nov 2014 (Local Time) from EGPF Reporting Station
Few Clouds Few Clouds  
Wind Chill: 41°   Ceiling: Unl
Heat Index: 46°   Visibility: 6mi
Dew Point: 43°   Wind: 12mph
Humidity: 87%   Direction: 80°E
Pressure: 30.03"   Gusts: NA
Location:  56.24°N, 4.22°W
Report Text: EGPF 211220Z 08010KT 030V100 9999 FEW022 08/06 Q1017
Loading
Personal Weather Stations






























Interactive Weather Map New forecast layout! Learn more

10-Day Weather Forecast

Advertisements
Track Severe Weather on mobile